sensor_id;sensor_type;location;lat;lon;timestamp;P1;durP1;ratioP1;P2;durP2;ratioP2
2458;SDS011;1241;50.920;6.936;2023-02-14T00:00:16;27.67;;;18.33;;
2458;SDS011;1241;50.920;6.936;2023-02-14T00:02:42;16.33;;;12.52;;
2458;SDS011;1241;50.920;6.936;2023-02-14T00:05:08;15.80;;;11.90;;
2458;SDS011;1241;50.920;6.936;2023-02-14T00:07:34;19.70;;;14.90;;
2458;SDS011;1241;50.920;6.936;2023-02-14T00:09:59;26.73;;;17.50;;
2458;SDS011;1241;50.920;6.936;2023-02-14T00:12:28;17.43;;;12.40;;
2458;SDS011;1241;50.920;6.936;2023-02-14T00:14:54;26.40;;;18.27;;
2458;SDS011;1241;50.920;6.936;2023-02-14T00:17:38;27.95;;;20.10;;
2458;SDS011;1241;50.920;6.936;2023-02-14T00:20:10;16.13;;;12.80;;
2458;SDS011;1241;50.920;6.936;2023-02-14T00:22:36;18.83;;;13.65;;
2458;SDS011;1241;50.920;6.936;2023-02-14T00:25:01;19.20;;;14.53;;
2458;SDS011;1241;50.920;6.936;2023-02-14T00:27:27;25.43;;;17.87;;
2458;SDS011;1241;50.920;6.936;2023-02-14T00:29:53;19.90;;;14.80;;
2458;SDS011;1241;50.920;6.936;2023-02-14T00:32:20;16.42;;;13.15;;
2458;SDS011;1241;50.920;6.936;2023-02-14T00:34:46;16.30;;;14.03;;
2458;SDS011;1241;50.920;6.936;2023-02-14T00:37:11;18.20;;;13.80;;
2458;SDS011;1241;50.920;6.936;2023-02-14T00:39:37;21.10;;;14.00;;
2458;SDS011;1241;50.920;6.936;2023-02-14T00:42:04;18.60;;;14.25;;
2458;SDS011;1241;50.920;6.936;2023-02-14T00:44:30;23.53;;;16.87;;
2458;SDS011;1241;50.920;6.936;2023-02-14T00:46:55;20.00;;;14.63;;
2458;SDS011;1241;50.920;6.936;2023-02-14T00:49:21;19.08;;;14.50;;
2458;SDS011;1241;50.920;6.936;2023-02-14T00:51:47;13.13;;;11.33;;
2458;SDS011;1241;50.920;6.936;2023-02-14T00:54:13;20.90;;;13.60;;
2458;SDS011;1241;50.920;6.936;2023-02-14T00:56:39;19.20;;;14.80;;
2458;SDS011;1241;50.920;6.936;2023-02-14T00:59:07;26.90;;;19.23;;
2458;SDS011;1241;50.920;6.936;2023-02-14T01:01:33;17.20;;;12.60;;
2458;SDS011;1241;50.920;6.936;2023-02-14T01:03:59;21.47;;;17.57;;
2458;SDS011;1241;50.920;6.936;2023-02-14T01:06:24;22.17;;;15.30;;
2458;SDS011;1241;50.920;6.936;2023-02-14T01:08:50;13.63;;;12.23;;
2458;SDS011;1241;50.920;6.936;2023-02-14T01:11:17;17.63;;;13.13;;
2458;SDS011;1241;50.920;6.936;2023-02-14T01:13:45;17.38;;;13.27;;
2458;SDS011;1241;50.920;6.936;2023-02-14T01:16:13;32.78;;;17.95;;
2458;SDS011;1241;50.920;6.936;2023-02-14T01:18:43;22.65;;;16.73;;
2458;SDS011;1241;50.920;6.936;2023-02-14T01:23:38;18.05;;;14.88;;
2458;SDS011;1241;50.920;6.936;2023-02-14T01:26:05;17.63;;;13.65;;
2458;SDS011;1241;50.920;6.936;2023-02-14T01:28:31;18.42;;;13.85;;
2458;SDS011;1241;50.920;6.936;2023-02-14T01:31:04;19.83;;;14.25;;
2458;SDS011;1241;50.920;6.936;2023-02-14T01:33:34;24.08;;;16.42;;
2458;SDS011;1241;50.920;6.936;2023-02-14T01:35:59;17.00;;;13.93;;
2458;SDS011;1241;50.920;6.936;2023-02-14T01:38:25;27.40;;;18.40;;
2458;SDS011;1241;50.920;6.936;2023-02-14T01:40:51;26.43;;;17.83;;
2458;SDS011;1241;50.920;6.936;2023-02-14T01:43:17;25.30;;;17.03;;
2458;SDS011;1241;50.920;6.936;2023-02-14T01:45:43;18.65;;;14.52;;
2458;SDS011;1241;50.920;6.936;2023-02-14T01:48:09;21.20;;;14.70;;
2458;SDS011;1241;50.920;6.936;2023-02-14T01:50:35;19.02;;;15.45;;
2458;SDS011;1241;50.920;6.936;2023-02-14T01:53:07;26.77;;;19.92;;
2458;SDS011;1241;50.920;6.936;2023-02-14T01:55:38;25.60;;;19.20;;
2458;SDS011;1241;50.920;6.936;2023-02-14T01:58:19;21.10;;;13.68;;
2458;SDS011;1241;50.920;6.936;2023-02-14T02:00:48;23.45;;;16.13;;
2458;SDS011;1241;50.920;6.936;2023-02-14T02:03:25;24.40;;;16.30;;
2458;SDS011;1241;50.920;6.936;2023-02-14T02:05:52;16.08;;;13.32;;
2458;SDS011;1241;50.920;6.936;2023-02-14T02:08:23;17.30;;;14.95;;
2458;SDS011;1241;50.920;6.936;2023-02-14T02:10:49;20.45;;;16.13;;
2458;SDS011;1241;50.920;6.936;2023-02-14T02:13:19;27.67;;;17.83;;
2458;SDS011;1241;50.920;6.936;2023-02-14T02:18:42;24.25;;;16.80;;
2458;SDS011;1241;50.920;6.936;2023-02-14T02:41:44;26.40;;;18.38;;
2458;SDS011;1241;50.920;6.936;2023-02-14T02:44:16;28.23;;;19.25;;
2458;SDS011;1241;50.920;6.936;2023-02-14T02:47:06;27.25;;;19.10;;
2458;SDS011;1241;50.920;6.936;2023-02-14T02:55:30;19.77;;;15.00;;
2458;SDS011;1241;50.920;6.936;2023-02-14T02:58:23;16.85;;;13.40;;
2458;SDS011;1241;50.920;6.936;2023-02-14T03:00:54;20.13;;;16.00;;
2458;SDS011;1241;50.920;6.936;2023-02-14T03:03:23;26.13;;;18.35;;
2458;SDS011;1241;50.920;6.936;2023-02-14T03:06:09;28.30;;;17.77;;
2458;SDS011;1241;50.920;6.936;2023-02-14T03:08:36;26.10;;;17.17;;
2458;SDS011;1241;50.920;6.936;2023-02-14T03:11:01;21.77;;;16.97;;
2458;SDS011;1241;50.920;6.936;2023-02-14T03:23:38;18.88;;;15.90;;
2458;SDS011;1241;50.920;6.936;2023-02-14T03:28:42;20.07;;;14.50;;
2458;SDS011;1241;50.920;6.936;2023-02-14T03:32:02;20.33;;;15.23;;
2458;SDS011;1241;50.920;6.936;2023-02-14T03:34:29;22.77;;;16.70;;
2458;SDS011;1241;50.920;6.936;2023-02-14T03:42:21;24.40;;;19.00;;
2458;SDS011;1241;50.920;6.936;2023-02-14T03:45:12;23.23;;;18.02;;
2458;SDS011;1241;50.920;6.936;2023-02-14T03:47:42;24.10;;;16.92;;
2458;SDS011;1241;50.920;6.936;2023-02-14T03:50:12;28.83;;;21.63;;
2458;SDS011;1241;50.920;6.936;2023-02-14T03:52:42;29.65;;;18.92;;
2458;SDS011;1241;50.920;6.936;2023-02-14T03:55:10;24.17;;;19.25;;
2458;SDS011;1241;50.920;6.936;2023-02-14T04:00:13;23.02;;;18.42;;
2458;SDS011;1241;50.920;6.936;2023-02-14T04:02:43;22.23;;;16.85;;
2458;SDS011;1241;50.920;6.936;2023-02-14T04:05:18;21.42;;;16.83;;
2458;SDS011;1241;50.920;6.936;2023-02-14T04:07:49;25.80;;;18.88;;
2458;SDS011;1241;50.920;6.936;2023-02-14T04:10:17;27.80;;;17.83;;
2458;SDS011;1241;50.920;6.936;2023-02-14T04:12:44;23.25;;;17.95;;
2458;SDS011;1241;50.920;6.936;2023-02-14T04:15:10;25.80;;;18.07;;
2458;SDS011;1241;50.920;6.936;2023-02-14T04:17:36;24.40;;;19.50;;
2458;SDS011;1241;50.920;6.936;2023-02-14T04:20:21;24.88;;;16.55;;
2458;SDS011;1241;50.920;6.936;2023-02-14T04:22:47;29.60;;;17.67;;
2458;SDS011;1241;50.920;6.936;2023-02-14T04:25:13;21.77;;;17.33;;
2458;SDS011;1241;50.920;6.936;2023-02-14T04:27:39;25.70;;;17.48;;
2458;SDS011;1241;50.920;6.936;2023-02-14T04:30:05;25.27;;;18.40;;
2458;SDS011;1241;50.920;6.936;2023-02-14T04:32:31;26.33;;;18.92;;
2458;SDS011;1241;50.920;6.936;2023-02-14T04:34:57;28.37;;;19.07;;
2458;SDS011;1241;50.920;6.936;2023-02-14T04:37:23;28.03;;;19.40;;
2458;SDS011;1241;50.920;6.936;2023-02-14T04:39:48;26.20;;;19.77;;
2458;SDS011;1241;50.920;6.936;2023-02-14T04:42:14;24.83;;;18.40;;
2458;SDS011;1241;50.920;6.936;2023-02-14T04:44:40;29.27;;;20.73;;
2458;SDS011;1241;50.920;6.936;2023-02-14T04:47:07;23.50;;;17.85;;
2458;SDS011;1241;50.920;6.936;2023-02-14T04:49:33;33.83;;;23.00;;
2458;SDS011;1241;50.920;6.936;2023-02-14T04:51:59;24.63;;;17.23;;
2458;SDS011;1241;50.920;6.936;2023-02-14T04:54:25;30.65;;;19.65;;
2458;SDS011;1241;50.920;6.936;2023-02-14T04:56:51;23.20;;;18.13;;
2458;SDS011;1241;50.920;6.936;2023-02-14T04:59:16;26.47;;;17.90;;
2458;SDS011;1241;50.920;6.936;2023-02-14T05:01:42;25.77;;;19.80;;
2458;SDS011;1241;50.920;6.936;2023-02-14T05:04:08;28.50;;;17.90;;
2458;SDS011;1241;50.920;6.936;2023-02-14T05:06:34;31.35;;;20.75;;
2458;SDS011;1241;50.920;6.936;2023-02-14T05:09:00;24.33;;;17.30;;
2458;SDS011;1241;50.920;6.936;2023-02-14T05:11:27;24.83;;;19.33;;
2458;SDS011;1241;50.920;6.936;2023-02-14T05:13:53;30.30;;;20.88;;
2458;SDS011;1241;50.920;6.936;2023-02-14T05:16:19;29.50;;;19.35;;
2458;SDS011;1241;50.920;6.936;2023-02-14T05:18:45;35.20;;;22.17;;
2458;SDS011;1241;50.920;6.936;2023-02-14T05:21:11;26.80;;;19.20;;
2458;SDS011;1241;50.920;6.936;2023-02-14T05:23:37;32.67;;;20.88;;
2458;SDS011;1241;50.920;6.936;2023-02-14T05:26:03;31.45;;;21.33;;
2458;SDS011;1241;50.920;6.936;2023-02-14T05:28:29;27.08;;;21.08;;
2458;SDS011;1241;50.920;6.936;2023-02-14T05:30:55;29.15;;;19.20;;
2458;SDS011;1241;50.920;6.936;2023-02-14T05:33:22;31.45;;;20.42;;
2458;SDS011;1241;50.920;6.936;2023-02-14T05:35:48;29.25;;;20.60;;
2458;SDS011;1241;50.920;6.936;2023-02-14T05:38:14;28.30;;;20.10;;
2458;SDS011;1241;50.920;6.936;2023-02-14T05:40:40;31.37;;;22.63;;
2458;SDS011;1241;50.920;6.936;2023-02-14T05:43:06;27.08;;;19.48;;
2458;SDS011;1241;50.920;6.936;2023-02-14T05:45:32;28.40;;;19.57;;
2458;SDS011;1241;50.920;6.936;2023-02-14T05:47:58;25.47;;;20.00;;
2458;SDS011;1241;50.920;6.936;2023-02-14T05:50:24;28.77;;;19.13;;
2458;SDS011;1241;50.920;6.936;2023-02-14T05:52:52;30.23;;;19.83;;
2458;SDS011;1241;50.920;6.936;2023-02-14T05:55:18;31.30;;;20.07;;
2458;SDS011;1241;50.920;6.936;2023-02-14T05:57:43;30.13;;;20.50;;
2458;SDS011;1241;50.920;6.936;2023-02-14T06:00:09;29.77;;;21.50;;
2458;SDS011;1241;50.920;6.936;2023-02-14T06:02:38;34.47;;;22.00;;
2458;SDS011;1241;50.920;6.936;2023-02-14T06:05:05;29.42;;;22.55;;
2458;SDS011;1241;50.920;6.936;2023-02-14T06:07:32;32.70;;;19.58;;
2458;SDS011;1241;50.920;6.936;2023-02-14T06:09:57;32.53;;;22.60;;
2458;SDS011;1241;50.920;6.936;2023-02-14T06:12:23;30.27;;;22.13;;
2458;SDS011;1241;50.920;6.936;2023-02-14T06:14:49;33.67;;;21.40;;
2458;SDS011;1241;50.920;6.936;2023-02-14T06:17:14;32.63;;;20.90;;
2458;SDS011;1241;50.920;6.936;2023-02-14T06:19:40;32.30;;;22.60;;
2458;SDS011;1241;50.920;6.936;2023-02-14T06:22:07;29.38;;;21.65;;
2458;SDS011;1241;50.920;6.936;2023-02-14T06:24:33;36.83;;;21.65;;
2458;SDS011;1241;50.920;6.936;2023-02-14T06:26:59;29.90;;;21.80;;
2458;SDS011;1241;50.920;6.936;2023-02-14T06:29:25;30.73;;;19.60;;
2458;SDS011;1241;50.920;6.936;2023-02-14T06:31:50;36.00;;;21.90;;
2458;SDS011;1241;50.920;6.936;2023-02-14T06:34:16;36.00;;;22.60;;
2458;SDS011;1241;50.920;6.936;2023-02-14T06:36:42;32.43;;;22.40;;
2458;SDS011;1241;50.920;6.936;2023-02-14T06:39:08;39.38;;;23.27;;
2458;SDS011;1241;50.920;6.936;2023-02-14T06:41:34;31.60;;;20.47;;
2458;SDS011;1241;50.920;6.936;2023-02-14T06:44:01;31.27;;;22.25;;
2458;SDS011;1241;50.920;6.936;2023-02-14T06:46:26;33.20;;;24.40;;
2458;SDS011;1241;50.920;6.936;2023-02-14T06:48:52;38.37;;;23.77;;
2458;SDS011;1241;50.920;6.936;2023-02-14T06:51:17;43.83;;;24.40;;
2458;SDS011;1241;50.920;6.936;2023-02-14T06:53:43;29.93;;;22.07;;
2458;SDS011;1241;50.920;6.936;2023-02-14T06:56:09;30.13;;;22.70;;
2458;SDS011;1241;50.920;6.936;2023-02-14T06:58:35;35.60;;;24.60;;
2458;SDS011;1241;50.920;6.936;2023-02-14T07:01:00;38.87;;;22.50;;
2458;SDS011;1241;50.920;6.936;2023-02-14T07:03:26;38.57;;;23.00;;
2458;SDS011;1241;50.920;6.936;2023-02-14T07:05:52;37.20;;;25.07;;
2458;SDS011;1241;50.920;6.936;2023-02-14T07:08:18;34.95;;;23.55;;
2458;SDS011;1241;50.920;6.936;2023-02-14T07:10:44;45.67;;;26.63;;
2458;SDS011;1241;50.920;6.936;2023-02-14T07:13:11;44.55;;;26.35;;
2458;SDS011;1241;50.920;6.936;2023-02-14T07:15:37;34.78;;;23.80;;
2458;SDS011;1241;50.920;6.936;2023-02-14T07:18:03;42.57;;;25.80;;
2458;SDS011;1241;50.920;6.936;2023-02-14T07:20:28;36.83;;;24.37;;
2458;SDS011;1241;50.920;6.936;2023-02-14T07:22:54;40.47;;;26.00;;
2458;SDS011;1241;50.920;6.936;2023-02-14T07:25:20;39.60;;;24.83;;
2458;SDS011;1241;50.920;6.936;2023-02-14T07:27:46;36.00;;;24.70;;
2458;SDS011;1241;50.920;6.936;2023-02-14T07:30:12;39.15;;;25.70;;
2458;SDS011;1241;50.920;6.936;2023-02-14T07:32:38;41.30;;;24.07;;
2458;SDS011;1241;50.920;6.936;2023-02-14T07:35:04;35.03;;;22.53;;
2458;SDS011;1241;50.920;6.936;2023-02-14T07:37:31;33.60;;;24.50;;
2458;SDS011;1241;50.920;6.936;2023-02-14T07:39:57;38.45;;;23.55;;
2458;SDS011;1241;50.920;6.936;2023-02-14T07:42:23;37.27;;;22.67;;
2458;SDS011;1241;50.920;6.936;2023-02-14T07:44:49;36.90;;;21.27;;
2458;SDS011;1241;50.920;6.936;2023-02-14T07:47:15;42.87;;;23.93;;
2458;SDS011;1241;50.920;6.936;2023-02-14T07:49:40;33.73;;;23.53;;
2458;SDS011;1241;50.920;6.936;2023-02-14T07:52:06;32.83;;;22.00;;
2458;SDS011;1241;50.920;6.936;2023-02-14T07:54:32;28.10;;;22.20;;
2458;SDS011;1241;50.920;6.936;2023-02-14T07:56:58;37.27;;;23.40;;
2458;SDS011;1241;50.920;6.936;2023-02-14T07:59:24;37.93;;;25.60;;
2458;SDS011;1241;50.920;6.936;2023-02-14T08:01:50;39.77;;;26.17;;
2458;SDS011;1241;50.920;6.936;2023-02-14T08:04:15;42.27;;;25.00;;
2458;SDS011;1241;50.920;6.936;2023-02-14T08:06:41;33.03;;;23.77;;
2458;SDS011;1241;50.920;6.936;2023-02-14T08:09:07;38.85;;;23.23;;
2458;SDS011;1241;50.920;6.936;2023-02-14T08:11:49;28.55;;;20.75;;
2458;SDS011;1241;50.920;6.936;2023-02-14T08:14:34;36.83;;;22.60;;
2458;SDS011;1241;50.920;6.936;2023-02-14T08:17:00;31.60;;;22.43;;
2458;SDS011;1241;50.920;6.936;2023-02-14T08:19:26;34.00;;;22.75;;
2458;SDS011;1241;50.920;6.936;2023-02-14T08:21:52;34.03;;;23.73;;
2458;SDS011;1241;50.920;6.936;2023-02-14T08:24:18;38.20;;;22.60;;
2458;SDS011;1241;50.920;6.936;2023-02-14T08:26:44;31.70;;;22.30;;
2458;SDS011;1241;50.920;6.936;2023-02-14T08:29:09;32.80;;;22.70;;
2458;SDS011;1241;50.920;6.936;2023-02-14T08:31:35;36.70;;;24.07;;
2458;SDS011;1241;50.920;6.936;2023-02-14T08:34:02;32.40;;;23.50;;
2458;SDS011;1241;50.920;6.936;2023-02-14T08:36:29;38.65;;;26.85;;
2458;SDS011;1241;50.920;6.936;2023-02-14T08:38:54;37.70;;;25.50;;
2458;SDS011;1241;50.920;6.936;2023-02-14T08:41:21;36.58;;;22.73;;
2458;SDS011;1241;50.920;6.936;2023-02-14T08:43:48;35.90;;;23.23;;
2458;SDS011;1241;50.920;6.936;2023-02-14T08:46:14;29.48;;;22.05;;
2458;SDS011;1241;50.920;6.936;2023-02-14T08:48:41;36.58;;;23.95;;
2458;SDS011;1241;50.920;6.936;2023-02-14T08:51:07;35.85;;;24.00;;
2458;SDS011;1241;50.920;6.936;2023-02-14T08:53:35;34.13;;;23.77;;
2458;SDS011;1241;50.920;6.936;2023-02-14T08:56:01;30.95;;;21.25;;
2458;SDS011;1241;50.920;6.936;2023-02-14T08:58:32;35.38;;;23.23;;
2458;SDS011;1241;50.920;6.936;2023-02-14T09:01:00;31.55;;;22.77;;
2458;SDS011;1241;50.920;6.936;2023-02-14T09:03:26;31.50;;;22.75;;
2458;SDS011;1241;50.920;6.936;2023-02-14T09:05:52;33.10;;;22.20;;
2458;SDS011;1241;50.920;6.936;2023-02-14T09:08:17;33.33;;;23.27;;
2458;SDS011;1241;50.920;6.936;2023-02-14T09:10:43;31.83;;;20.67;;
2458;SDS011;1241;50.920;6.936;2023-02-14T09:13:09;34.07;;;22.20;;
2458;SDS011;1241;50.920;6.936;2023-02-14T09:15:35;37.97;;;25.30;;
2458;SDS011;1241;50.920;6.936;2023-02-14T09:18:00;30.43;;;21.50;;
2458;SDS011;1241;50.920;6.936;2023-02-14T09:20:26;37.63;;;22.40;;
2458;SDS011;1241;50.920;6.936;2023-02-14T09:22:54;31.27;;;21.57;;
2458;SDS011;1241;50.920;6.936;2023-02-14T09:25:20;30.17;;;20.60;;
2458;SDS011;1241;50.920;6.936;2023-02-14T09:27:46;32.00;;;23.87;;
2458;SDS011;1241;50.920;6.936;2023-02-14T09:30:12;25.97;;;20.80;;
2458;SDS011;1241;50.920;6.936;2023-02-14T09:32:38;31.27;;;22.27;;
2458;SDS011;1241;50.920;6.936;2023-02-14T09:35:04;29.10;;;22.03;;
2458;SDS011;1241;50.920;6.936;2023-02-14T09:37:49;29.25;;;22.00;;
2458;SDS011;1241;50.920;6.936;2023-02-14T09:40:33;29.88;;;21.20;;
2458;SDS011;1241;50.920;6.936;2023-02-14T09:45:31;36.85;;;24.40;;
2458;SDS011;1241;50.920;6.936;2023-02-14T09:50:32;28.05;;;20.45;;
2458;SDS011;1241;50.920;6.936;2023-02-14T09:53:24;31.83;;;22.27;;
2458;SDS011;1241;50.920;6.936;2023-02-14T09:56:15;28.20;;;21.48;;
2458;SDS011;1241;50.920;6.936;2023-02-14T09:58:46;32.55;;;22.35;;
2458;SDS011;1241;50.920;6.936;2023-02-14T10:04:38;33.30;;;21.10;;
2458;SDS011;1241;50.920;6.936;2023-02-14T10:12:36;30.77;;;21.55;;
2458;SDS011;1241;50.920;6.936;2023-02-14T10:15:24;28.67;;;20.80;;
2458;SDS011;1241;50.920;6.936;2023-02-14T10:18:01;30.58;;;21.02;;
2458;SDS011;1241;50.920;6.936;2023-02-14T10:20:53;27.83;;;20.30;;
2458;SDS011;1241;50.920;6.936;2023-02-14T10:26:10;32.33;;;21.70;;
2458;SDS011;1241;50.920;6.936;2023-02-14T10:28:40;26.55;;;22.20;;
2458;SDS011;1241;50.920;6.936;2023-02-14T10:34:07;29.83;;;21.88;;
2458;SDS011;1241;50.920;6.936;2023-02-14T10:39:26;29.77;;;22.48;;
2458;SDS011;1241;50.920;6.936;2023-02-14T10:53:17;28.67;;;20.02;;
2458;SDS011;1241;50.920;6.936;2023-02-14T10:55:56;32.33;;;23.13;;
2458;SDS011;1241;50.920;6.936;2023-02-14T10:58:30;30.88;;;20.13;;
2458;SDS011;1241;50.920;6.936;2023-02-14T11:01:12;29.35;;;20.75;;
2458;SDS011;1241;50.920;6.936;2023-02-14T11:03:40;31.08;;;21.10;;
2458;SDS011;1241;50.920;6.936;2023-02-14T11:06:14;26.88;;;19.02;;
2458;SDS011;1241;50.920;6.936;2023-02-14T11:08:40;31.93;;;20.53;;
2458;SDS011;1241;50.920;6.936;2023-02-14T11:13:56;30.35;;;21.67;;
2458;SDS011;1241;50.920;6.936;2023-02-14T11:16:34;26.17;;;19.57;;
2458;SDS011;1241;50.920;6.936;2023-02-14T11:19:09;29.52;;;20.15;;
2458;SDS011;1241;50.920;6.936;2023-02-14T11:21:39;26.83;;;21.15;;
2458;SDS011;1241;50.920;6.936;2023-02-14T11:24:17;29.83;;;20.50;;
2458;SDS011;1241;50.920;6.936;2023-02-14T11:26:53;29.98;;;19.65;;
2458;SDS011;1241;50.920;6.936;2023-02-14T11:29:34;21.73;;;17.88;;
2458;SDS011;1241;50.920;6.936;2023-02-14T11:32:08;27.45;;;20.15;;
2458;SDS011;1241;50.920;6.936;2023-02-14T11:34:38;26.58;;;19.67;;
2458;SDS011;1241;50.920;6.936;2023-02-14T11:38:08;25.90;;;17.73;;
2458;SDS011;1241;50.920;6.936;2023-02-14T11:40:06;24.83;;;18.20;;
2458;SDS011;1241;50.920;6.936;2023-02-14T11:42:49;22.17;;;18.02;;
2458;SDS011;1241;50.920;6.936;2023-02-14T11:50:42;21.25;;;17.63;;
2458;SDS011;1241;50.920;6.936;2023-02-14T11:53:19;25.63;;;18.83;;
2458;SDS011;1241;50.920;6.936;2023-02-14T11:55:52;30.30;;;20.50;;
2458;SDS011;1241;50.920;6.936;2023-02-14T11:58:32;22.90;;;18.35;;
2458;SDS011;1241;50.920;6.936;2023-02-14T12:01:01;27.65;;;20.33;;
2458;SDS011;1241;50.920;6.936;2023-02-14T12:03:30;23.40;;;18.40;;
2458;SDS011;1241;50.920;6.936;2023-02-14T12:06:02;21.63;;;15.52;;
2458;SDS011;1241;50.920;6.936;2023-02-14T12:08:29;23.50;;;17.40;;
2458;SDS011;1241;50.920;6.936;2023-02-14T12:10:59;24.67;;;16.55;;
2458;SDS011;1241;50.920;6.936;2023-02-14T12:13:28;25.00;;;18.35;;
2458;SDS011;1241;50.920;6.936;2023-02-14T12:15:55;21.20;;;18.00;;
2458;SDS011;1241;50.920;6.936;2023-02-14T12:18:42;25.92;;;18.05;;
2458;SDS011;1241;50.920;6.936;2023-02-14T12:24:02;22.52;;;18.95;;
2458;SDS011;1241;50.920;6.936;2023-02-14T12:29:41;19.38;;;16.70;;
2458;SDS011;1241;50.920;6.936;2023-02-14T12:32:15;23.25;;;19.13;;
2458;SDS011;1241;50.920;6.936;2023-02-14T12:34:46;22.65;;;16.83;;
2458;SDS011;1241;50.920;6.936;2023-02-14T12:37:14;20.13;;;17.55;;
2458;SDS011;1241;50.920;6.936;2023-02-14T12:45:03;22.83;;;17.50;;
2458;SDS011;1241;50.920;6.936;2023-02-14T12:53:14;23.35;;;16.98;;
2458;SDS011;1241;50.920;6.936;2023-02-14T12:58:59;19.60;;;17.35;;
2458;SDS011;1241;50.920;6.936;2023-02-14T13:04:21;18.48;;;15.85;;
2458;SDS011;1241;50.920;6.936;2023-02-14T13:06:58;22.45;;;16.80;;
2458;SDS011;1241;50.920;6.936;2023-02-14T13:14:56;34.85;;;25.13;;
2458;SDS011;1241;50.920;6.936;2023-02-14T13:17:37;21.08;;;17.10;;
2458;SDS011;1241;50.920;6.936;2023-02-14T13:22:54;19.90;;;15.45;;
2458;SDS011;1241;50.920;6.936;2023-02-14T13:25:27;21.02;;;15.48;;
2458;SDS011;1241;50.920;6.936;2023-02-14T13:27:58;22.92;;;16.55;;
2458;SDS011;1241;50.920;6.936;2023-02-14T13:30:31;20.77;;;16.13;;
2458;SDS011;1241;50.920;6.936;2023-02-14T13:33:02;21.38;;;14.48;;
2458;SDS011;1241;50.920;6.936;2023-02-14T13:35:32;19.15;;;15.90;;
2458;SDS011;1241;50.920;6.936;2023-02-14T13:38:00;21.35;;;16.73;;
2458;SDS011;1241;50.920;6.936;2023-02-14T13:40:28;22.05;;;16.45;;
2458;SDS011;1241;50.920;6.936;2023-02-14T13:42:59;19.85;;;14.43;;
2458;SDS011;1241;50.920;6.936;2023-02-14T13:48:07;19.50;;;15.45;;
2458;SDS011;1241;50.920;6.936;2023-02-14T13:50:39;18.05;;;15.10;;
2458;SDS011;1241;50.920;6.936;2023-02-14T13:53:31;18.55;;;16.55;;
2458;SDS011;1241;50.920;6.936;2023-02-14T13:56:02;23.98;;;17.23;;
2458;SDS011;1241;50.920;6.936;2023-02-14T13:58:30;19.85;;;15.82;;
2458;SDS011;1241;50.920;6.936;2023-02-14T14:00:56;20.15;;;17.30;;
2458;SDS011;1241;50.920;6.936;2023-02-14T14:06:10;18.67;;;14.52;;
2458;SDS011;1241;50.920;6.936;2023-02-14T14:08:38;17.17;;;14.50;;
2458;SDS011;1241;50.920;6.936;2023-02-14T14:13:57;21.20;;;15.48;;
2458;SDS011;1241;50.920;6.936;2023-02-14T14:16:27;19.27;;;15.20;;
2458;SDS011;1241;50.920;6.936;2023-02-14T14:21:28;21.73;;;16.77;;
2458;SDS011;1241;50.920;6.936;2023-02-14T14:29:39;19.80;;;15.13;;
2458;SDS011;1241;50.920;6.936;2023-02-14T14:32:24;22.25;;;14.25;;
2458;SDS011;1241;50.920;6.936;2023-02-14T14:34:51;17.27;;;14.82;;
2458;SDS011;1241;50.920;6.936;2023-02-14T14:37:33;21.17;;;16.17;;
2458;SDS011;1241;50.920;6.936;2023-02-14T14:40:00;21.17;;;14.82;;
2458;SDS011;1241;50.920;6.936;2023-02-14T14:42:38;17.15;;;15.32;;
2458;SDS011;1241;50.920;6.936;2023-02-14T14:45:06;15.35;;;12.90;;
2458;SDS011;1241;50.920;6.936;2023-02-14T14:47:53;18.05;;;14.20;;
2458;SDS011;1241;50.920;6.936;2023-02-14T14:50:22;18.73;;;13.48;;
2458;SDS011;1241;50.920;6.936;2023-02-14T14:52:50;17.23;;;12.35;;
2458;SDS011;1241;50.920;6.936;2023-02-14T14:57:50;14.77;;;12.60;;
2458;SDS011;1241;50.920;6.936;2023-02-14T15:00:18;16.27;;;13.57;;
2458;SDS011;1241;50.920;6.936;2023-02-14T15:08:14;18.17;;;13.45;;
2458;SDS011;1241;50.920;6.936;2023-02-14T15:16:33;14.45;;;12.07;;
2458;SDS011;1241;50.920;6.936;2023-02-14T15:19:11;15.65;;;13.98;;
2458;SDS011;1241;50.920;6.936;2023-02-14T15:21:55;17.63;;;13.73;;
2458;SDS011;1241;50.920;6.936;2023-02-14T15:24:21;17.98;;;13.70;;
2458;SDS011;1241;50.920;6.936;2023-02-14T15:26:47;19.03;;;15.03;;
2458;SDS011;1241;50.920;6.936;2023-02-14T15:31:49;18.23;;;13.52;;
2458;SDS011;1241;50.920;6.936;2023-02-14T15:34:22;18.10;;;13.93;;
2458;SDS011;1241;50.920;6.936;2023-02-14T15:36:55;18.45;;;14.23;;
2458;SDS011;1241;50.920;6.936;2023-02-14T15:39:29;16.98;;;13.55;;
2458;SDS011;1241;50.920;6.936;2023-02-14T15:42:01;14.98;;;13.50;;
2458;SDS011;1241;50.920;6.936;2023-02-14T15:44:29;15.85;;;13.30;;
2458;SDS011;1241;50.920;6.936;2023-02-14T15:46:56;16.60;;;14.10;;
2458;SDS011;1241;50.920;6.936;2023-02-14T15:49:30;17.80;;;14.52;;
2458;SDS011;1241;50.920;6.936;2023-02-14T15:52:02;18.38;;;13.77;;
2458;SDS011;1241;50.920;6.936;2023-02-14T15:54:37;17.55;;;14.30;;
2458;SDS011;1241;50.920;6.936;2023-02-14T15:57:07;17.30;;;13.43;;
2458;SDS011;1241;50.920;6.936;2023-02-14T15:59:45;16.08;;;12.30;;
2458;SDS011;1241;50.920;6.936;2023-02-14T16:04:44;15.93;;;13.18;;
2458;SDS011;1241;50.920;6.936;2023-02-14T16:07:24;18.90;;;14.43;;
2458;SDS011;1241;50.920;6.936;2023-02-14T16:15:43;17.88;;;13.13;;
2458;SDS011;1241;50.920;6.936;2023-02-14T16:18:42;18.50;;;14.25;;
2458;SDS011;1241;50.920;6.936;2023-02-14T16:21:11;20.98;;;15.35;;
2458;SDS011;1241;50.920;6.936;2023-02-14T16:23:37;19.52;;;14.85;;
2458;SDS011;1241;50.920;6.936;2023-02-14T16:26:06;19.48;;;15.00;;
2458;SDS011;1241;50.920;6.936;2023-02-14T16:28:32;21.33;;;16.00;;
2458;SDS011;1241;50.920;6.936;2023-02-14T16:31:01;16.45;;;14.70;;
2458;SDS011;1241;50.920;6.936;2023-02-14T16:33:31;14.82;;;13.27;;
2458;SDS011;1241;50.920;6.936;2023-02-14T16:36:03;19.25;;;14.10;;
2458;SDS011;1241;50.920;6.936;2023-02-14T16:38:48;15.98;;;13.55;;
2458;SDS011;1241;50.920;6.936;2023-02-14T16:41:18;21.15;;;15.38;;
2458;SDS011;1241;50.920;6.936;2023-02-14T16:43:46;18.48;;;14.20;;
2458;SDS011;1241;50.920;6.936;2023-02-14T16:46:13;19.45;;;15.23;;
2458;SDS011;1241;50.920;6.936;2023-02-14T16:48:41;23.33;;;16.05;;
2458;SDS011;1241;50.920;6.936;2023-02-14T16:51:11;19.52;;;15.07;;
2458;SDS011;1241;50.920;6.936;2023-02-14T16:53:38;19.73;;;14.60;;
2458;SDS011;1241;50.920;6.936;2023-02-14T16:56:06;17.70;;;14.63;;
2458;SDS011;1241;50.920;6.936;2023-02-14T16:58:37;21.55;;;15.75;;
2458;SDS011;1241;50.920;6.936;2023-02-14T17:01:03;18.55;;;14.80;;
2458;SDS011;1241;50.920;6.936;2023-02-14T17:03:29;23.33;;;17.13;;
2458;SDS011;1241;50.920;6.936;2023-02-14T17:05:55;15.90;;;13.67;;
2458;SDS011;1241;50.920;6.936;2023-02-14T17:08:22;22.17;;;14.73;;
2458;SDS011;1241;50.920;6.936;2023-02-14T17:10:48;18.15;;;14.90;;
2458;SDS011;1241;50.920;6.936;2023-02-14T17:13:18;20.98;;;15.90;;
2458;SDS011;1241;50.920;6.936;2023-02-14T17:15:46;21.58;;;15.75;;
2458;SDS011;1241;50.920;6.936;2023-02-14T17:18:13;19.83;;;15.95;;
2458;SDS011;1241;50.920;6.936;2023-02-14T17:20:41;19.05;;;15.30;;
2458;SDS011;1241;50.920;6.936;2023-02-14T17:23:07;18.35;;;14.90;;
2458;SDS011;1241;50.920;6.936;2023-02-14T17:25:33;16.97;;;14.57;;
2458;SDS011;1241;50.920;6.936;2023-02-14T17:27:59;21.70;;;16.48;;
2458;SDS011;1241;50.920;6.936;2023-02-14T17:30:25;21.83;;;14.90;;
2458;SDS011;1241;50.920;6.936;2023-02-14T17:32:51;21.13;;;15.47;;
2458;SDS011;1241;50.920;6.936;2023-02-14T17:35:17;19.80;;;15.23;;
2458;SDS011;1241;50.920;6.936;2023-02-14T17:37:43;26.95;;;17.70;;
2458;SDS011;1241;50.920;6.936;2023-02-14T17:40:09;26.17;;;18.00;;
2458;SDS011;1241;50.920;6.936;2023-02-14T17:42:36;20.23;;;16.25;;
2458;SDS011;1241;50.920;6.936;2023-02-14T17:45:03;20.73;;;15.98;;
2458;SDS011;1241;50.920;6.936;2023-02-14T17:47:30;27.42;;;15.77;;